Date,TemperatureHighF,TemperatureAvgF,TemperatureLowF,DewpointHighF,DewpointAvgF,DewpointLowF,HumidityHigh,HumidityAvg,HumidityLow,PressureMaxIn,PressureMinIn,WindSpeedMaxMPH,WindSpeedAvgMPH,GustSpeedMaxMPH,PrecipitationSumIn
2013-1-1,31.5,29.0,22.6,30.1,26.2,19.7,95,89,78,30.22,30.10,4,1,5,0.06
2013-1-2,24.3,17.1,8.5,19.9,10.8,5.2,92,78,45,30.34,30.21,3,0,4,0.00
2013-1-3,31.9,21.7,6.3,24.2,14.8,2.3,85,75,60,30.40,30.30,8,2,13,0.02
2013-1-4,32.8,28.0,21.1,24.6,21.4,17.5,87,76,62,30.42,30.36,9,4,16,0.02
2013-1-5,39.8,30.3,19.6,27.4,23.9,17.1,92,78,57,30.42,30.22,5,2,9,0.05
2013-1-6,36.7,31.9,25.7,31.9,26.9,21.0,88,82,76,30.42,30.08,9,4,14,0.00
2013-1-7,37.9,27.3,17.2,27.2,22.5,15.3,93,83,64,30.53,30.32,6,1,7,0.00
2013-1-8,47.3,34.1,23.3,34.2,27.9,20.9,91,79,60,30.38,30.27,5,1,8,0.00
2013-1-9,51.1,42.4,33.4,41.8,36.3,30.1,95,80,59,30.55,30.27,7,2,10,0.05
2013-1-10,42.2,35.8,28.9,38.9,32.8,27.1,95,89,78,30.57,30.15,12,5,14,0.04
2013-1-11,59.4,51.8,42.3,53.2,48.0,38.9,96,87,72,30.15,29.92,10,4,13,0.59
2013-1-12,63.6,57.5,49.4,60.9,54.9,46.3,95,91,81,30.04,29.78,10,4,13,0.15
2013-1-13,63.4,48.9,29.4,60.5,47.1,27.1,96,94,89,30.18,29.70,12,4,17,1.05
2013-1-14,29.4,23.4,20.3,26.3,20.2,17.8,92,87,83,30.52,30.18,6,3,10,0.00
2013-1-15,29.9,26.0,21.3,25.4,22.1,18.8,91,85,78,30.45,30.17,7,3,9,0.00
2013-1-16,33.7,30.9,28.9,27.5,25.5,22.8,90,80,67,30.17,30.05,6,2,8,0.00
2013-1-17,41.6,32.3,25.2,31.9,25.3,17.4,87,76,61,30.47,30.14,8,3,10,0.00
2013-1-18,39.7,28.8,17.3,26.9,19.4,13.2,89,69,45,30.59,30.28,7,3,11,0.00
2013-1-19,52.6,43.5,36.7,32.5,28.2,25.3,66,55,41,30.28,29.95,10,7,15,0.00
2013-1-20,45.5,31.5,24.2,36.3,17.8,11.4,76,57,43,30.28,29.96,9,5,17,0.00
2013-1-21,24.0,18.6,9.9,15.7,8.7,-2.0,81,65,49,30.33,30.17,13,5,17,0.00
2013-1-22,17.5,11.5,4.2,1.4,-0.4,-2.3,80,59,43,30.49,30.33,9,4,12,0.00
2013-1-23,21.5,16.4,9.4,11.9,4.9,0.9,74,60,51,30.45,30.18,5,2,7,0.00
2013-1-24,22.5,18.2,12.7,12.7,5.5,-0.2,80,58,37,30.67,30.19,9,5,17,0.00
2013-1-25,24.9,20.8,17.3,20.8,14.9,7.8,90,78,59,30.52,30.12,10,4,12,0.00
2013-1-26,30.7,22.6,16.9,19.5,16.9,13.4,91,79,61,30.51,30.20,4,1,6,0.03
2013-1-27,35.1,26.3,18.3,33.5,22.1,14.9,94,84,69,30.51,30.21,10,5,10,0.04
2013-1-28,51.9,46.6,35.5,50.7,44.7,33.5,96,93,85,30.21,30.06,9,5,16,0.31
2013-1-29,63.0,57.0,49.8,58.4,53.7,48.1,96,89,84,30.08,29.56,12,5,17,0.00
2013-1-30,64.8,49.7,29.6,59.1,46.1,25.1,95,88,80,29.60,29.29,11,7,19,1.02
2013-1-31,29.5,24.4,12.2,24.6,18.5,6.4,92,78,62,30.13,29.60,13,8,27,0.00